»·PEaware :: N351SS KSNA-KSNA

N351SS :: KSNA-KSNA

FLIGHT INFORMATION

Flight Status: Arrived
Operator: Privately registered:
United States
More flights under this callsign
Pilot: Reuben K. (13591)
Aircraft: CESSNA 206 STATIONAIR
(C206)
More flights by this aircraft type
Origin: KSNA John Wayne-Orange Co
United States
Destination: KSNA John Wayne-Orange Co
United States
More flights between these airports :: More routes between these airports
Route: SLI
File this flight plan on PilotEdge
Remarks: PRACTICE APPROACH TO ILS 20R
Altitude:
(Current/Filed)
3,000ft
Speed:
(Current/Filed)
140kts
Departed: 13-Feb-20 05:20 PM
Arrived: 13-Feb-20 05:44 PM
Distance/Time
Traveled:
0nm/0:23
Distance/Time
To Go:
Arrived

Flight Plot

Page will automatically refresh every two minutes.


Map Options




Map Legend


Flown Route
Filed Route
Departure Airport
Arrival Airport
Navaid (VOR, NDB)
Fix

Horizontal Profiles

Position Reports

Time Latitude Longitude Heading Altitude Ground
Speed
13-Feb-20 16:49 33.676080 -117.870909 219 60ft 0kts
13-Feb-20 16:51 33.676080 -117.870909 219 60ft 0kts
13-Feb-20 16:52 33.676080 -117.870909 219 60ft 0kts
13-Feb-20 16:53 33.675139 -117.871546 203 60ft 8kts
13-Feb-20 16:54 33.672101 -117.872361 182 60ft 13kts
13-Feb-20 16:55 33.672049 -117.873614 108 60ft 0kts
13-Feb-20 16:56 33.672049 -117.873613 108 60ft 0kts
13-Feb-20 16:57 33.672049 -117.873613 108 60ft 0kts
13-Feb-20 16:58 33.672049 -117.873613 108 60ft 0kts
13-Feb-20 16:59 33.672049 -117.873613 108 60ft 0kts
13-Feb-20 17:00 33.672049 -117.873613 108 60ft 0kts
13-Feb-20 17:01 33.672049 -117.873613 108 60ft 0kts
13-Feb-20 17:02 33.672049 -117.873613 108 60ft 0kts
13-Feb-20 17:03 33.672049 -117.873613 108 60ft 0kts
13-Feb-20 17:04 33.672049 -117.873613 108 60ft 0kts
13-Feb-20 17:05 33.672049 -117.873613 108 60ft 0kts
13-Feb-20 17:06 33.672049 -117.873613 108 60ft 0kts
13-Feb-20 17:07 33.672049 -117.873613 108 60ft 0kts
13-Feb-20 17:08 33.672049 -117.873613 108 60ft 0kts
13-Feb-20 17:09 33.672049 -117.873613 108 60ft 0kts
13-Feb-20 17:10 33.672049 -117.873613 108 60ft 0kts
13-Feb-20 17:10 33.672049 -117.873613 108 60ft 0kts
13-Feb-20 17:12 33.672049 -117.873613 108 60ft 0kts
13-Feb-20 17:13 33.672049 -117.873613 108 60ft 0kts
13-Feb-20 17:13 33.672049 -117.873613 108 60ft 0kts
13-Feb-20 17:15 33.672049 -117.873613 108 60ft 0kts
13-Feb-20 17:15 33.673677 -117.871608 29 60ft 20kts
13-Feb-20 17:16 33.678258 -117.868687 27 60ft 16kts
13-Feb-20 17:17 33.681242 -117.866476 113 60ft 0kts
13-Feb-20 17:18 33.681143 -117.866191 112 60ft 6kts
13-Feb-20 17:19 33.664779 -117.875388 206 510ft 103kts
13-Feb-20 17:20 33.646184 -117.902702 241 1530ft 109kts
13-Feb-20 17:21 33.630650 -117.935255 243 2491ft 117kts
13-Feb-20 17:22 33.633939 -117.972176 329 2924ft 144kts
13-Feb-20 17:23 33.671570 -117.967739 12 2924ft 137kts
13-Feb-20 17:24 33.708782 -117.958166 11 2913ft 136kts
13-Feb-20 17:25 33.746056 -117.949030 12 2906ft 136kts
13-Feb-20 17:26 33.782319 -117.938486 23 2939ft 136kts
13-Feb-20 17:27 33.814619 -117.914794 31 2927ft 137kts
13-Feb-20 17:28 33.846917 -117.890593 31 2926ft 136kts
13-Feb-20 17:29 33.874344 -117.870026 31 2923ft 101kts
13-Feb-20 17:30 33.897090 -117.852989 31 2926ft 94kts
13-Feb-20 17:31 33.903922 -117.825533 91 2926ft 92kts
13-Feb-20 17:32 33.903095 -117.794633 91 2926ft 92kts
13-Feb-20 17:33 33.902269 -117.763634 91 2926ft 92kts
13-Feb-20 17:34 33.882687 -117.749959 171 2926ft 91kts
13-Feb-20 17:35 33.858235 -117.753797 202 2929ft 94kts
13-Feb-20 17:36 33.832535 -117.769461 207 2927ft 108kts
13-Feb-20 17:37 33.806105 -117.786292 207 2900ft 101kts
13-Feb-20 17:38 33.780127 -117.802811 207 2399ft 104kts
13-Feb-20 17:39 33.754355 -117.819184 207 1808ft 105kts
13-Feb-20 17:40 33.728070 -117.835876 207 1159ft 106kts
13-Feb-20 17:41 33.701944 -117.852203 205 552ft 104kts
13-Feb-20 17:42 33.678682 -117.866944 208 60ft 66kts
13-Feb-20 17:43 33.676035 -117.871173 201 60ft 0kts
13-Feb-20 17:44 33.675616 -117.871299 223 60ft 0kts
13-Feb-20 17:45 33.675616 -117.871299 223 60ft 0kts
13-Feb-20 17:46 33.675616 -117.871299 223 60ft 0kts
13-Feb-20 17:47 33.675616 -117.871299 223 60ft 0kts
13-Feb-20 17:48 33.675616 -117.871299 223 60ft 0kts
13-Feb-20 17:49 33.675616 -117.871299 223 60ft 0kts
13-Feb-20 17:50 33.675616 -117.871299 223 60ft 0kts
13-Feb-20 17:51 33.675616 -117.871299 223 60ft 0kts
13-Feb-20 17:52 33.675616 -117.871299 223 60ft 0kts
13-Feb-20 17:53 33.675616 -117.871299 223 60ft 0kts
13-Feb-20 17:54 33.675616 -117.871299 223 60ft 0kts
13-Feb-20 17:55 33.675616 -117.871299 223 60ft 0kts
13-Feb-20 17:56 33.675616 -117.871299 223 60ft 0kts
13-Feb-20 17:57 33.675616 -117.871299 223 60ft 0kts

Navigation Log

Ident Type
Flight plan parsing failed, navigation log unavailable